Thalassa — FNFP — position and weather

sailwx.info

Track history (hours):
 
Tides and Currents Weather Stations Pressure Air Temp Water Temp Dewpoint Dewpoint Depression Visibility Wind Speed Wind Dir Waves Ship Positions

Oceanographic research ship Thalassa (France & Spain)

Detailed information on ship capabilities available from University of Delaware's Ocean Information Center.

Last reported at 2014-Sep-29 06:30 UTC. Time now 2014-Sep-30 17:54 UTC.
Position N 50°03' W 001°14'.

Length 74 m; beam 15 m.

Type: . MMSI: 227297000.

Date/timePositionNaut miles runAvg speedWind from/ knotsBaromVisibWave heightAir tempDewpointWater temp
2014-Sep-29 06:30N 50°03' W 001°14'3 1.6
2014-Sep-29 04:25N 50°02' W 001°19'7 8.7
2014-Sep-29 03:33N 49°59' W 001°30'10 9.6
2014-Sep-29 02:33N 49°56' W 001°44'0 0.4
2014-Sep-29 01:32N 49°56' W 001°43'2 1.7
2014-Sep-29 00:28N 49°56' W 001°46'5 4.9
2014-Sep-28 23:31N 49°56' W 001°53'4 3.7
2014-Sep-28 22:23N 49°55' W 001°60'18 2.7
2014-Sep-28 15:30N 50°09' W 001°40'3 3.0
2014-Sep-28 14:33N 50°09' W 001°36'3 2.6
2014-Sep-28 13:28N 50°09' W 001°31'17 8.5
2014-Sep-28 11:25N 50°16' W 001°56'1 1.3
2014-Sep-28 10:33N 50°17' W 001°57'2 1.7
2014-Sep-28 09:32N 50°18' W 001°55'29 5.4
2014-Sep-28 04:14N 49°57' W 002°25'7 8.4
2014-Sep-28 03:26N 49°51' W 002°20'  
2014-Sep-19 17:16N 49°12' W 004°22'1 0.3
2014-Sep-19 14:33N 49°11' W 004°23'25 8.3
2014-Sep-19 11:33N 48°48' W 004°08'0 0.0
2014-Sep-19 10:09N 48°48' W 004°08'4 5.9
2014-Sep-19 09:32N 48°49' W 004°14'9 3.1
2014-Sep-19 06:30N 48°52' W 004°27'  
Track history (hours):
 
Tides and Currents Weather Stations Pressure Air Temp Water Temp Dewpoint Dewpoint Depression Visibility Wind Speed Wind Dir Waves Ship Positions

Oceanographic research ship Thalassa (France & Spain)

Detailed information on ship capabilities available from University of Delaware's Ocean Information Center.

Last reported at 2014-Sep-29 06:30 UTC. Time now 2014-Sep-30 17:54 UTC.
Position N 50°03' W 001°14'.

Length 74 m; beam 15 m.

Type: . MMSI: 227297000.

Date/timePositionNaut miles runAvg speedWind from/ knotsBaromVisibWave heightAir tempDewpointWater temp
2014-Sep-29 06:30N 50°03' W 001°14'3 1.6
2014-Sep-29 04:25N 50°02' W 001°19'7 8.7
2014-Sep-29 03:33N 49°59' W 001°30'10 9.6
2014-Sep-29 02:33N 49°56' W 001°44'0 0.4
2014-Sep-29 01:32N 49°56' W 001°43'2 1.7
2014-Sep-29 00:28N 49°56' W 001°46'5 4.9
2014-Sep-28 23:31N 49°56' W 001°53'4 3.7
2014-Sep-28 22:23N 49°55' W 001°60'18 2.7
2014-Sep-28 15:30N 50°09' W 001°40'3 3.0
2014-Sep-28 14:33N 50°09' W 001°36'3 2.6
2014-Sep-28 13:28N 50°09' W 001°31'17 8.5
2014-Sep-28 11:25N 50°16' W 001°56'1 1.3
2014-Sep-28 10:33N 50°17' W 001°57'2 1.7
2014-Sep-28 09:32N 50°18' W 001°55'29 5.4
2014-Sep-28 04:14N 49°57' W 002°25'7 8.4
2014-Sep-28 03:26N 49°51' W 002°20'  
2014-Sep-19 17:16N 49°12' W 004°22'1 0.3
2014-Sep-19 14:33N 49°11' W 004°23'25 8.3
2014-Sep-19 11:33N 48°48' W 004°08'0 0.0
2014-Sep-19 10:09N 48°48' W 004°08'4 5.9
2014-Sep-19 09:32N 48°49' W 004°14'9 3.1
2014-Sep-19 06:30N 48°52' W 004°27'  

Dump ship's entire track history